Time;durP1;ratioP1;P1;durP2;ratioP2;P2;SDS_P1;SDS_P2;PMS_P1;PMS_P2;Temp;Humidity;BMP_temperature;BMP_pressure;BME280_temperature;BME280_humidity;BME280_pressure;Samples;Min_cycle;Max_cycle;Signal;HPM_P1;HPM_P2
2021/10/30 00:02:17;;;;;;;20.90;12.30;;;;;;;;;;5034078;28;20496;-77
2021/10/30 00:04:43;;;;;;;19.23;12.57;;;;;;;;;;5041615;28;20069;-77
2021/10/30 00:07:09;;;;;;;20.38;13.20;;;;;;;;;;5058834;28;20059;-77
2021/10/30 00:09:36;;;;;;;18.52;12.20;;;;;;;;;;5042096;28;20052;-77
2021/10/30 00:12:02;;;;;;;22.42;14.10;;;;;;;;;;5043510;28;20069;-77
2021/10/30 00:14:28;;;;;;;17.17;13.70;;;;;;;;;;5038514;28;20389;-77
2021/10/30 00:16:55;;;;;;;19.55;14.02;;;;;;;;;;5040367;28;20385;-77
2021/10/30 00:19:21;;;;;;;19.80;14.38;;;;;;;;;;5040881;28;20037;-77
2021/10/30 00:21:52;;;;;;;23.00;15.30;;;;;;;;;;5032234;28;20041;-77
2021/10/30 00:24:18;;;;;;;22.40;14.98;;;;;;;;;;5036787;28;20041;-77
2021/10/30 00:26:45;;;;;;;23.02;16.02;;;;;;;;;;5038446;28;20431;-77
2021/10/30 00:29:11;;;;;;;21.13;14.80;;;;;;;;;;5037838;28;20045;-77
2021/10/30 00:31:37;;;;;;;22.90;14.73;;;;;;;;;;5052853;28;20368;-77
2021/10/30 00:34:03;;;;;;;20.77;14.70;;;;;;;;;;5077166;28;20055;-77
2021/10/30 00:36:29;;;;;;;22.70;15.93;;;;;;;;;;5048064;28;20128;-77
2021/10/30 00:38:56;;;;;;;23.88;16.13;;;;;;;;;;5042470;28;20052;-77
2021/10/30 00:41:22;;;;;;;24.85;17.08;;;;;;;;;;5032394;28;20057;-77
2021/10/30 00:43:48;;;;;;;25.25;16.17;;;;;;;;;;5048001;28;20040;-77
2021/10/30 00:46:15;;;;;;;32.70;16.20;;;;;;;;;;5042038;28;20103;-77
2021/10/30 00:48:41;;;;;;;21.13;16.67;;;;;;;;;;5041379;28;20048;-77
2021/10/30 00:51:08;;;;;;;21.98;15.77;;;;;;;;;;5039160;28;20094;-77
2021/10/30 00:53:34;;;;;;;24.83;15.82;;;;;;;;;;5075283;28;20399;-77
2021/10/30 00:56:02;;;;;;;22.35;16.70;;;;;;;;;;5041370;28;20029;-77
2021/10/30 00:58:32;;;;;;;19.88;14.90;;;;;;;;;;5035046;28;20152;-77
2021/10/30 01:00:58;;;;;;;24.58;16.02;;;;;;;;;;5038283;28;20115;-77
2021/10/30 01:03:24;;;;;;;22.38;16.10;;;;;;;;;;5044652;28;20545;-77
2021/10/30 01:05:51;;;;;;;21.92;15.32;;;;;;;;;;5043737;28;20037;-77
2021/10/30 01:08:18;;;;;;;25.98;15.68;;;;;;;;;;5044106;28;20045;-77
2021/10/30 01:10:44;;;;;;;21.25;14.85;;;;;;;;;;5036134;28;20113;-77
2021/10/30 01:13:11;;;;;;;21.83;14.93;;;;;;;;;;5036564;28;20175;-77
2021/10/30 01:15:37;;;;;;;21.80;14.55;;;;;;;;;;5040148;28;20037;-77
2021/10/30 01:18:06;;;;;;;24.02;16.08;;;;;;;;;;5040101;28;20064;-77
2021/10/30 01:20:32;;;;;;;21.27;15.02;;;;;;;;;;5036871;28;20136;-77
2021/10/30 01:22:59;;;;;;;22.70;15.02;;;;;;;;;;5068364;28;20048;-77
2021/10/30 01:25:25;;;;;;;21.67;14.93;;;;;;;;;;5038093;28;20076;-77
2021/10/30 01:27:52;;;;;;;21.92;14.95;;;;;;;;;;5055032;28;20041;-77
2021/10/30 01:30:19;;;;;;;20.10;14.50;;;;;;;;;;5043010;28;20041;-77
2021/10/30 01:32:53;;;;;;;23.50;15.27;;;;;;;;;;5044775;28;20497;-77
2021/10/30 01:35:33;;;;;;;29.48;15.70;;;;;;;;;;5045755;28;20125;-77
2021/10/30 01:38:00;;;;;;;22.00;14.85;;;;;;;;;;5045257;28;20373;-77
2021/10/30 01:40:26;;;;;;;19.85;14.60;;;;;;;;;;5047895;28;20060;-77
2021/10/30 01:42:53;;;;;;;21.38;14.07;;;;;;;;;;5040867;28;20037;-77
2021/10/30 01:48:39;;;;;;;21.85;13.90;;;;;;;;;;5043361;28;20052;-77
2021/10/30 01:51:07;;;;;;;20.20;14.30;;;;;;;;;;5049899;28;20041;-77
2021/10/30 01:53:34;;;;;;;20.13;14.73;;;;;;;;;;5079039;28;20128;-77
2021/10/30 01:56:00;;;;;;;20.17;15.05;;;;;;;;;;5048014;28;20044;-77
2021/10/30 01:58:26;;;;;;;21.08;14.20;;;;;;;;;;5030165;28;20036;-77
2021/10/30 02:00:54;;;;;;;23.27;15.57;;;;;;;;;;5041457;28;20135;-77
2021/10/30 02:03:22;;;;;;;20.50;15.00;;;;;;;;;;5067401;28;20053;-77
2021/10/30 02:05:49;;;;;;;19.85;14.32;;;;;;;;;;5077458;28;20049;-77
2021/10/30 02:08:15;;;;;;;21.15;14.50;;;;;;;;;;5036259;28;20404;-77
2021/10/30 02:10:41;;;;;;;23.80;13.63;;;;;;;;;;5042978;28;20045;-77
2021/10/30 02:13:08;;;;;;;20.92;13.88;;;;;;;;;;5041052;28;20060;-77
2021/10/30 02:15:34;;;;;;;21.58;14.00;;;;;;;;;;5072495;28;20052;-77
2021/10/30 02:18:00;;;;;;;17.88;13.02;;;;;;;;;;5035931;28;20041;-77
2021/10/30 02:20:27;;;;;;;18.10;12.27;;;;;;;;;;5037918;28;20223;-77
2021/10/30 02:22:53;;;;;;;21.50;13.55;;;;;;;;;;5044590;28;20478;-77
2021/10/30 02:25:21;;;;;;;21.00;14.10;;;;;;;;;;5053820;28;20393;-77
2021/10/30 02:27:47;;;;;;;17.70;12.52;;;;;;;;;;5067543;28;20095;-77
2021/10/30 02:30:14;;;;;;;21.17;13.75;;;;;;;;;;5061512;28;20516;-77
2021/10/30 02:32:41;;;;;;;19.08;13.50;;;;;;;;;;5040228;28;20168;-77
2021/10/30 02:35:08;;;;;;;19.25;12.75;;;;;;;;;;5071776;28;20064;-77
2021/10/30 02:37:34;;;;;;;19.50;13.32;;;;;;;;;;5049868;28;20056;-77
2021/10/30 02:40:00;;;;;;;20.88;13.18;;;;;;;;;;5046389;28;20045;-77
2021/10/30 02:42:26;;;;;;;19.70;13.57;;;;;;;;;;5041390;28;20045;-77
2021/10/30 02:44:52;;;;;;;19.67;13.45;;;;;;;;;;5048798;28;20135;-77
2021/10/30 02:47:18;;;;;;;19.15;14.20;;;;;;;;;;5043583;28;20060;-73
2021/10/30 02:49:45;;;;;;;19.55;13.82;;;;;;;;;;5053528;28;20124;-77
2021/10/30 02:52:11;;;;;;;24.40;13.90;;;;;;;;;;5048845;28;20301;-77
2021/10/30 02:54:37;;;;;;;21.40;13.55;;;;;;;;;;5044033;28;20045;-77
2021/10/30 02:57:03;;;;;;;21.30;14.82;;;;;;;;;;5041722;28;20061;-77
2021/10/30 02:59:29;;;;;;;20.02;13.45;;;;;;;;;;5041884;28;20349;-77
2021/10/30 03:01:56;;;;;;;20.13;14.63;;;;;;;;;;5071725;28;20048;-77
2021/10/30 03:04:22;;;;;;;22.00;14.00;;;;;;;;;;5043233;28;20130;-77
2021/10/30 03:06:48;;;;;;;18.55;13.73;;;;;;;;;;5046667;28;20072;-77
2021/10/30 03:09:14;;;;;;;19.95;14.00;;;;;;;;;;5057678;28;20049;-77
2021/10/30 03:11:40;;;;;;;23.92;14.70;;;;;;;;;;5049566;28;20052;-77
2021/10/30 03:14:06;;;;;;;19.02;13.73;;;;;;;;;;5043713;28;20045;-77
2021/10/30 03:16:33;;;;;;;20.67;14.90;;;;;;;;;;5046043;28;20121;-77
2021/10/30 03:18:59;;;;;;;20.83;14.43;;;;;;;;;;5044219;28;20049;-77
2021/10/30 03:21:25;;;;;;;21.52;14.50;;;;;;;;;;5052012;28;20128;-77
2021/10/30 03:23:51;;;;;;;22.80;13.93;;;;;;;;;;5042496;28;20054;-77
2021/10/30 03:26:17;;;;;;;25.75;15.95;;;;;;;;;;5038763;28;20059;-77
2021/10/30 03:28:44;;;;;;;22.58;15.07;;;;;;;;;;5041367;28;20037;-77
2021/10/30 03:31:10;;;;;;;24.10;14.45;;;;;;;;;;5044943;28;20119;-76
2021/10/30 03:33:36;;;;;;;25.23;15.18;;;;;;;;;;5041361;28;20049;-77
2021/10/30 03:36:02;;;;;;;28.27;16.02;;;;;;;;;;5040198;28;20048;-77
2021/10/30 03:38:28;;;;;;;26.70;15.45;;;;;;;;;;5045682;28;20090;-77
2021/10/30 03:40:55;;;;;;;25.00;15.50;;;;;;;;;;5045613;28;20045;-77
2021/10/30 03:43:21;;;;;;;23.83;15.93;;;;;;;;;;5042513;28;20037;-76
2021/10/30 03:45:47;;;;;;;18.88;13.90;;;;;;;;;;5049015;28;20060;-76
2021/10/30 03:48:17;;;;;;;21.27;15.27;;;;;;;;;;5039793;28;20049;-76
2021/10/30 03:50:43;;;;;;;25.73;15.20;;;;;;;;;;5034733;28;20047;-77
2021/10/30 03:53:09;;;;;;;23.63;15.45;;;;;;;;;;5036181;28;20046;-76
2021/10/30 03:55:35;;;;;;;22.73;16.33;;;;;;;;;;5071055;28;20172;-76
2021/10/30 03:58:02;;;;;;;24.30;16.42;;;;;;;;;;5038563;28;20053;-77
2021/10/30 04:00:28;;;;;;;22.38;16.23;;;;;;;;;;5033835;28;20041;-77
2021/10/30 04:02:54;;;;;;;22.25;16.27;;;;;;;;;;5028302;28;20041;-77
2021/10/30 04:05:20;;;;;;;22.30;15.88;;;;;;;;;;5069788;28;20068;-77
2021/10/30 04:07:47;;;;;;;25.50;16.88;;;;;;;;;;5035806;28;20072;-76
2021/10/30 04:10:13;;;;;;;23.98;16.48;;;;;;;;;;5038278;28;20103;-76
2021/10/30 04:12:40;;;;;;;27.67;16.75;;;;;;;;;;5048626;28;20037;-76
2021/10/30 04:15:07;;;;;;;24.17;16.02;;;;;;;;;;5050862;28;20500;-77
2021/10/30 04:17:33;;;;;;;22.77;15.98;;;;;;;;;;5072139;28;20095;-77
2021/10/30 04:19:59;;;;;;;24.08;16.67;;;;;;;;;;5042877;28;20041;-77
2021/10/30 04:22:25;;;;;;;24.40;17.42;;;;;;;;;;5043797;28;20120;-77
2021/10/30 04:24:53;;;;;;;28.73;17.48;;;;;;;;;;5042301;28;20084;-77
2021/10/30 04:27:19;;;;;;;24.90;17.02;;;;;;;;;;5047475;28;20059;-77
2021/10/30 04:29:45;;;;;;;28.80;19.77;;;;;;;;;;5071661;28;20040;-77
2021/10/30 04:32:13;;;;;;;32.13;20.38;;;;;;;;;;5032831;28;20136;-77
2021/10/30 04:34:43;;;;;;;30.38;20.73;;;;;;;;;;5048223;28;20052;-77
2021/10/30 04:37:16;;;;;;;29.95;19.42;;;;;;;;;;5054387;28;20044;-77
2021/10/30 04:39:46;;;;;;;34.17;20.65;;;;;;;;;;5050168;28;20068;-77
2021/10/30 04:42:13;;;;;;;32.15;19.90;;;;;;;;;;5056768;28;20094;-77
2021/10/30 04:44:39;;;;;;;30.45;19.88;;;;;;;;;;5059664;28;20041;-77
2021/10/30 04:47:06;;;;;;;28.25;20.67;;;;;;;;;;5054124;28;20148;-77
2021/10/30 04:49:33;;;;;;;29.00;20.65;;;;;;;;;;5054938;28;20048;-77
2021/10/30 04:51:59;;;;;;;29.50;20.35;;;;;;;;;;5058540;28;20135;-77
2021/10/30 04:54:26;;;;;;;33.30;20.98;;;;;;;;;;5073375;28;20068;-77
2021/10/30 04:56:52;;;;;;;30.33;20.10;;;;;;;;;;5051186;28;20037;-77
2021/10/30 04:59:18;;;;;;;29.77;20.23;;;;;;;;;;5050736;28;20086;-77
2021/10/30 05:01:44;;;;;;;28.98;20.23;;;;;;;;;;5044558;28;20128;-77
2021/10/30 05:04:10;;;;;;;30.58;20.20;;;;;;;;;;5041907;28;20056;-77
2021/10/30 05:06:37;;;;;;;28.67;19.42;;;;;;;;;;5042706;28;20090;-77
2021/10/30 05:09:03;;;;;;;30.70;20.42;;;;;;;;;;5043297;28;20472;-76
2021/10/30 05:11:29;;;;;;;32.15;20.35;;;;;;;;;;5038856;28;20125;-77
2021/10/30 05:13:55;;;;;;;30.63;20.00;;;;;;;;;;5045021;28;20091;-77
2021/10/30 05:16:21;;;;;;;28.63;19.85;;;;;;;;;;5043909;28;20489;-77
2021/10/30 05:18:48;;;;;;;30.75;20.80;;;;;;;;;;5044491;28;20037;-77
2021/10/30 05:21:14;;;;;;;31.77;21.08;;;;;;;;;;5048924;28;20364;-77
2021/10/30 05:23:40;;;;;;;37.50;21.48;;;;;;;;;;5045641;28;20051;-77
2021/10/30 05:26:06;;;;;;;31.40;22.88;;;;;;;;;;5047925;28;20471;-77
2021/10/30 05:28:33;;;;;;;31.77;21.83;;;;;;;;;;5049729;28;20049;-77
2021/10/30 05:31:00;;;;;;;32.42;22.63;;;;;;;;;;5048601;28;20045;-77
2021/10/30 05:33:27;;;;;;;36.42;23.70;;;;;;;;;;5050026;28;20037;-77
2021/10/30 05:35:53;;;;;;;34.75;23.55;;;;;;;;;;5049259;28;20053;-77
2021/10/30 05:38:19;;;;;;;34.95;23.95;;;;;;;;;;5055641;28;20553;-77
2021/10/30 05:40:46;;;;;;;32.80;23.95;;;;;;;;;;5056024;28;20550;-77
2021/10/30 05:43:13;;;;;;;36.67;23.17;;;;;;;;;;5057361;28;20480;-77
2021/10/30 05:45:39;;;;;;;33.30;23.35;;;;;;;;;;5059342;28;20045;-77
2021/10/30 05:48:07;;;;;;;34.63;24.17;;;;;;;;;;5053534;28;20404;-77
2021/10/30 05:50:33;;;;;;;33.30;23.23;;;;;;;;;;5042500;28;20088;-77
2021/10/30 05:52:59;;;;;;;37.13;23.48;;;;;;;;;;5041967;28;20041;-77
2021/10/30 05:55:25;;;;;;;36.00;23.33;;;;;;;;;;5043101;28;20036;-77
2021/10/30 05:57:52;;;;;;;37.40;23.98;;;;;;;;;;5045780;28;20041;-77
2021/10/30 06:00:18;;;;;;;36.03;23.70;;;;;;;;;;5048139;28;20061;-77
2021/10/30 06:02:44;;;;;;;37.83;23.42;;;;;;;;;;5073361;28;20137;-77
2021/10/30 06:05:10;;;;;;;36.67;24.90;;;;;;;;;;5048077;28;20033;-77
2021/10/30 06:07:37;;;;;;;36.55;24.73;;;;;;;;;;5053086;28;20094;-77
2021/10/30 06:10:04;;;;;;;38.45;25.85;;;;;;;;;;5036450;28;20128;-77
2021/10/30 06:12:30;;;;;;;40.05;25.92;;;;;;;;;;5049155;28;20048;-77
2021/10/30 06:14:56;;;;;;;37.55;25.88;;;;;;;;;;5054519;28;20029;-77
2021/10/30 06:17:23;;;;;;;37.80;26.15;;;;;;;;;;5046874;28;20315;-77
2021/10/30 06:19:49;;;;;;;42.28;26.20;;;;;;;;;;5048116;28;20041;-77
2021/10/30 06:22:15;;;;;;;42.72;28.20;;;;;;;;;;5047241;28;20398;-77
2021/10/30 06:24:41;;;;;;;40.53;26.50;;;;;;;;;;5049466;28;20131;-77
2021/10/30 06:27:07;;;;;;;42.13;26.98;;;;;;;;;;5053447;28;20516;-77
2021/10/30 06:29:34;;;;;;;38.50;25.08;;;;;;;;;;5049090;28;21343;-77
2021/10/30 06:32:00;;;;;;;38.28;26.00;;;;;;;;;;5055609;28;20384;-77
2021/10/30 06:34:27;;;;;;;36.35;26.50;;;;;;;;;;5058066;28;20033;-77
2021/10/30 06:36:53;;;;;;;39.55;24.73;;;;;;;;;;5061445;28;20049;-77
2021/10/30 06:39:20;;;;;;;34.83;25.63;;;;;;;;;;5059841;28;20072;-77
2021/10/30 06:41:46;;;;;;;35.45;25.02;;;;;;;;;;5057273;28;20045;-77
2021/10/30 06:44:12;;;;;;;32.58;24.00;;;;;;;;;;5055130;28;20044;-77
2021/10/30 06:46:39;;;;;;;33.45;23.50;;;;;;;;;;5055374;28;20139;-77
2021/10/30 06:49:09;;;;;;;37.13;24.33;;;;;;;;;;5029656;28;20113;-77
2021/10/30 06:51:35;;;;;;;36.05;24.73;;;;;;;;;;5041726;28;20045;-77
2021/10/30 06:54:02;;;;;;;33.25;23.77;;;;;;;;;;5049992;28;20064;-77
2021/10/30 06:56:28;;;;;;;32.10;24.05;;;;;;;;;;5047252;28;20041;-77
2021/10/30 06:58:54;;;;;;;33.58;24.10;;;;;;;;;;5041183;28;20097;-78
2021/10/30 07:01:20;;;;;;;34.15;22.88;;;;;;;;;;5043662;28;20053;-77
2021/10/30 07:03:46;;;;;;;34.20;22.73;;;;;;;;;;5033982;28;20132;-77
2021/10/30 07:06:12;;;;;;;29.92;21.05;;;;;;;;;;5056560;28;20488;-77
2021/10/30 07:08:39;;;;;;;26.42;20.15;;;;;;;;;;5047386;28;20044;-78
2021/10/30 07:11:05;;;;;;;26.15;20.35;;;;;;;;;;5060005;28;20434;-78
2021/10/30 07:13:31;;;;;;;28.13;21.35;;;;;;;;;;5061269;28;20075;-78
2021/10/30 07:15:57;;;;;;;25.63;19.38;;;;;;;;;;5053072;28;20094;-78
2021/10/30 07:18:23;;;;;;;30.33;21.17;;;;;;;;;;5061025;28;20425;-78
2021/10/30 07:20:49;;;;;;;28.05;20.00;;;;;;;;;;5060461;28;20090;-78
2021/10/30 07:23:17;;;;;;;25.10;17.63;;;;;;;;;;5060216;28;20554;-78
2021/10/30 07:25:43;;;;;;;25.23;16.58;;;;;;;;;;5055246;28;20057;-78
2021/10/30 07:28:09;;;;;;;22.63;16.58;;;;;;;;;;5050775;28;20449;-78
2021/10/30 07:30:36;;;;;;;22.42;16.23;;;;;;;;;;5066892;28;20103;-78
2021/10/30 07:33:02;;;;;;;23.73;17.17;;;;;;;;;;5027888;28;20448;-78
2021/10/30 07:35:29;;;;;;;23.63;15.63;;;;;;;;;;5035796;28;20155;-79
2021/10/30 07:38:01;;;;;;;25.90;17.45;;;;;;;;;;5042995;28;20057;-78
2021/10/30 07:40:28;;;;;;;24.23;17.73;;;;;;;;;;5038569;28;20175;-78
2021/10/30 07:42:55;;;;;;;24.05;16.23;;;;;;;;;;5073691;28;20393;-79
2021/10/30 07:45:21;;;;;;;24.38;16.27;;;;;;;;;;5040265;28;20049;-78
2021/10/30 07:47:48;;;;;;;25.35;16.20;;;;;;;;;;5047876;28;20125;-76
2021/10/30 07:50:14;;;;;;;26.65;15.90;;;;;;;;;;5050320;28;20491;-76
2021/10/30 07:52:40;;;;;;;24.17;16.70;;;;;;;;;;5054521;28;20156;-77
2021/10/30 07:55:07;;;;;;;27.42;17.77;;;;;;;;;;5052782;28;20049;-76
2021/10/30 07:57:33;;;;;;;23.98;17.23;;;;;;;;;;5049820;28;20042;-76
2021/10/30 07:59:59;;;;;;;26.77;17.45;;;;;;;;;;5054959;28;20076;-77
2021/10/30 08:02:26;;;;;;;25.65;16.35;;;;;;;;;;5056306;28;20123;-76
2021/10/30 08:04:52;;;;;;;29.15;17.10;;;;;;;;;;5053969;28;20105;-76
2021/10/30 08:07:18;;;;;;;28.65;16.33;;;;;;;;;;5047331;28;20504;-76
2021/10/30 08:09:45;;;;;;;28.00;18.42;;;;;;;;;;5046111;28;20046;-76
2021/10/30 08:12:11;;;;;;;26.70;17.85;;;;;;;;;;5045530;28;20064;-76
2021/10/30 08:14:38;;;;;;;28.60;18.23;;;;;;;;;;5063328;28;20764;-76
2021/10/30 08:17:04;;;;;;;28.35;17.67;;;;;;;;;;5045941;28;20040;-76
2021/10/30 08:19:31;;;;;;;25.52;17.20;;;;;;;;;;5039591;28;20053;-76
2021/10/30 08:21:57;;;;;;;28.73;17.75;;;;;;;;;;5045339;28;20125;-76
2021/10/30 08:24:23;;;;;;;31.50;18.38;;;;;;;;;;5042774;28;20036;-76
2021/10/30 08:26:49;;;;;;;27.35;18.67;;;;;;;;;;5043749;28;20037;-76
2021/10/30 08:29:15;;;;;;;28.40;18.10;;;;;;;;;;5051263;28;20150;-75
2021/10/30 08:31:42;;;;;;;29.13;18.40;;;;;;;;;;5040544;28;20049;-76
2021/10/30 08:34:08;;;;;;;27.40;18.52;;;;;;;;;;5044468;28;20137;-76
2021/10/30 08:36:34;;;;;;;28.05;18.45;;;;;;;;;;5047171;28;20037;-75
2021/10/30 08:39:02;;;;;;;24.65;16.67;;;;;;;;;;5048534;28;20042;-75
2021/10/30 08:41:29;;;;;;;23.25;16.33;;;;;;;;;;5050835;28;20045;-75
2021/10/30 08:43:55;;;;;;;26.13;15.85;;;;;;;;;;5046937;28;20042;-75
2021/10/30 08:46:21;;;;;;;29.92;18.08;;;;;;;;;;5066620;28;20037;-75
2021/10/30 08:48:47;;;;;;;28.17;17.13;;;;;;;;;;5048779;28;20181;-76
2021/10/30 08:51:14;;;;;;;27.83;18.15;;;;;;;;;;5034040;28;20121;-76
2021/10/30 08:53:41;;;;;;;28.55;18.08;;;;;;;;;;5047610;28;20126;-76
2021/10/30 08:56:08;;;;;;;27.45;17.40;;;;;;;;;;5041077;28;20045;-76
2021/10/30 08:58:34;;;;;;;28.92;19.27;;;;;;;;;;5039238;28;20111;-76
2021/10/30 09:01:05;;;;;;;27.58;17.52;;;;;;;;;;5043367;28;20064;-76
2021/10/30 09:03:31;;;;;;;29.67;18.75;;;;;;;;;;5045144;28;20037;-75
2021/10/30 09:05:59;;;;;;;30.85;19.67;;;;;;;;;;5041822;28;20100;-75
2021/10/30 09:08:26;;;;;;;28.20;18.50;;;;;;;;;;5044684;28;20511;-76
2021/10/30 09:10:54;;;;;;;28.05;18.23;;;;;;;;;;5069862;28;20064;-76
2021/10/30 09:13:21;;;;;;;30.70;20.13;;;;;;;;;;5026963;28;20491;-75
2021/10/30 09:15:49;;;;;;;26.08;19.58;;;;;;;;;;5041002;28;20034;-75
2021/10/30 09:18:20;;;;;;;29.95;21.00;;;;;;;;;;5036574;28;20083;-75
2021/10/30 09:20:48;;;;;;;28.52;19.17;;;;;;;;;;5041242;28;20135;-75
2021/10/30 09:23:15;;;;;;;29.30;20.48;;;;;;;;;;5063408;28;20444;-75
2021/10/30 09:25:55;;;;;;;27.35;18.83;;;;;;;;;;5068046;28;20080;-76
2021/10/30 09:28:23;;;;;;;27.88;19.73;;;;;;;;;;5036499;28;20138;-75
2021/10/30 09:30:56;;;;;;;28.77;19.98;;;;;;;;;;5038420;28;20041;-75
2021/10/30 09:33:22;;;;;;;26.70;19.10;;;;;;;;;;5037179;28;20168;-75
2021/10/30 09:35:48;;;;;;;26.85;18.40;;;;;;;;;;5040460;28;20107;-76
2021/10/30 09:38:29;;;;;;;27.35;20.17;;;;;;;;;;5062729;28;20064;-76
2021/10/30 09:40:55;;;;;;;26.50;19.88;;;;;;;;;;5057538;28;20123;-76
2021/10/30 09:43:22;;;;;;;28.77;18.98;;;;;;;;;;5054808;28;20048;-76
2021/10/30 09:45:48;;;;;;;25.80;19.25;;;;;;;;;;5043780;28;20087;-76
2021/10/30 09:48:16;;;;;;;26.02;18.65;;;;;;;;;;5043243;28;20033;-76
2021/10/30 09:50:43;;;;;;;25.05;17.63;;;;;;;;;;5047385;28;20386;-77
2021/10/30 09:53:28;;;;;;;25.75;18.73;;;;;;;;;;5044794;28;20044;-76
2021/10/30 09:55:55;;;;;;;22.58;16.80;;;;;;;;;;5065173;28;20377;-77
2021/10/30 09:58:28;;;;;;;25.27;19.10;;;;;;;;;;5044546;28;20042;-77
2021/10/30 10:00:55;;;;;;;23.90;18.58;;;;;;;;;;5050685;28;20069;-77
2021/10/30 10:03:23;;;;;;;21.77;16.15;;;;;;;;;;5076324;28;20120;-77
2021/10/30 10:05:49;;;;;;;23.30;16.27;;;;;;;;;;5059116;28;20055;-77
2021/10/30 10:08:15;;;;;;;20.67;16.13;;;;;;;;;;5058333;28;20135;-77
2021/10/30 10:10:41;;;;;;;22.13;16.17;;;;;;;;;;5053660;28;20045;-77
2021/10/30 10:13:08;;;;;;;23.73;17.55;;;;;;;;;;5033697;28;20131;-77
2021/10/30 10:15:34;;;;;;;21.55;14.98;;;;;;;;;;5059223;28;20083;-77
2021/10/30 10:18:01;;;;;;;20.85;15.52;;;;;;;;;;5084876;28;21424;-77
2021/10/30 10:20:27;;;;;;;26.50;17.55;;;;;;;;;;5054673;28;20063;-77
2021/10/30 10:22:53;;;;;;;21.20;15.07;;;;;;;;;;5053712;28;20064;-77
2021/10/30 10:25:38;;;;;;;23.52;16.58;;;;;;;;;;5057719;28;20106;-77
2021/10/30 10:28:23;;;;;;;22.02;14.32;;;;;;;;;;5046729;28;20051;-77
2021/10/30 10:30:57;;;;;;;23.90;15.93;;;;;;;;;;5041798;28;20350;-77
2021/10/30 10:33:23;;;;;;;19.95;14.68;;;;;;;;;;5045721;28;20041;-77
2021/10/30 10:36:08;;;;;;;18.48;13.45;;;;;;;;;;5048425;28;20056;-77
2021/10/30 10:38:53;;;;;;;24.77;13.38;;;;;;;;;;5041906;28;20183;-76
2021/10/30 10:41:38;;;;;;;17.67;12.70;;;;;;;;;;5051292;28;20055;-77
2021/10/30 10:44:06;;;;;;;20.48;13.20;;;;;;;;;;5046079;28;20040;-77
2021/10/30 10:46:32;;;;;;;20.40;14.02;;;;;;;;;;5051552;28;20037;-77
2021/10/30 10:49:13;;;;;;;18.58;12.68;;;;;;;;;;5051281;28;20084;-76
2021/10/30 10:51:46;;;;;;;21.60;13.45;;;;;;;;;;5051666;28;20044;-77
2021/10/30 10:54:12;;;;;;;21.73;12.20;;;;;;;;;;5053012;28;20052;-77
2021/10/30 10:56:56;;;;;;;15.82;10.38;;;;;;;;;;5070528;28;20117;-76
2021/10/30 10:59:39;;;;;;;19.20;12.35;;;;;;;;;;5055485;28;20081;-76
2021/10/30 11:02:18;;;;;;;19.67;12.43;;;;;;;;;;5071610;28;20064;-72
2021/10/30 11:05:03;;;;;;;17.58;10.82;;;;;;;;;;5028723;28;20102;-74
2021/10/30 11:07:29;;;;;;;18.52;11.68;;;;;;;;;;5069069;28;20049;-72
2021/10/30 11:10:00;;;;;;;20.67;12.85;;;;;;;;;;5044753;28;20045;-73
2021/10/30 11:12:27;;;;;;;21.08;11.55;;;;;;;;;;5042376;28;20111;-73
2021/10/30 11:14:57;;;;;;;20.17;10.63;;;;;;;;;;5072576;28;20519;-73
2021/10/30 11:17:24;;;;;;;17.90;12.18;;;;;;;;;;5043841;28;20083;-73
2021/10/30 11:19:52;;;;;;;20.45;13.88;;;;;;;;;;5043210;28;20080;-73
2021/10/30 11:22:23;;;;;;;18.98;12.07;;;;;;;;;;5041593;28;20038;-73
2021/10/30 11:24:50;;;;;;;19.98;12.32;;;;;;;;;;5040737;28;20053;-73
2021/10/30 11:27:17;;;;;;;21.13;12.35;;;;;;;;;;5035352;28;20437;-72
2021/10/30 11:29:47;;;;;;;18.05;13.23;;;;;;;;;;5039383;28;20113;-73
2021/10/30 11:32:14;;;;;;;23.55;13.35;;;;;;;;;;5045687;28;20045;-72
2021/10/30 11:34:40;;;;;;;24.75;13.35;;;;;;;;;;5044633;28;20041;-72
2021/10/30 11:37:06;;;;;;;21.13;13.40;;;;;;;;;;5044685;28;20049;-72
2021/10/30 11:39:32;;;;;;;29.38;15.10;;;;;;;;;;5036999;28;20114;-72
2021/10/30 11:42:02;;;;;;;23.90;14.55;;;;;;;;;;5047581;28;20110;-72
2021/10/30 11:44:29;;;;;;;25.08;15.00;;;;;;;;;;5041218;28;20450;-72
2021/10/30 11:46:55;;;;;;;21.25;12.88;;;;;;;;;;5045477;28;20461;-72
2021/10/30 11:49:26;;;;;;;23.30;14.55;;;;;;;;;;5046674;28;20053;-73
2021/10/30 11:51:53;;;;;;;23.95;14.38;;;;;;;;;;5041967;28;20041;-72
2021/10/30 11:54:22;;;;;;;26.70;13.32;;;;;;;;;;5039645;28;20114;-79
2021/10/30 11:56:49;;;;;;;22.23;13.02;;;;;;;;;;5042511;28;20056;-72
2021/10/30 11:59:15;;;;;;;47.00;12.88;;;;;;;;;;5044850;28;20063;-72
2021/10/30 12:01:42;;;;;;;19.70;12.30;;;;;;;;;;5073582;28;20258;-73
2021/10/30 12:04:10;;;;;;;21.27;12.57;;;;;;;;;;5044588;28;20127;-72
2021/10/30 12:06:39;;;;;;;23.13;13.25;;;;;;;;;;5042261;28;20037;-72
2021/10/30 12:09:15;;;;;;;18.55;12.82;;;;;;;;;;5040530;28;20053;-72
2021/10/30 12:11:42;;;;;;;20.60;12.75;;;;;;;;;;5075326;28;20098;-72
2021/10/30 12:14:09;;;;;;;18.23;12.52;;;;;;;;;;5041155;28;20045;-73
2021/10/30 12:16:35;;;;;;;19.83;12.43;;;;;;;;;;5042661;28;20076;-73
2021/10/30 12:19:03;;;;;;;18.92;12.18;;;;;;;;;;5056902;28;20049;-72
2021/10/30 12:21:33;;;;;;;19.67;12.10;;;;;;;;;;5073908;28;20041;-73
2021/10/30 12:24:01;;;;;;;23.23;11.93;;;;;;;;;;5072474;28;20045;-73
2021/10/30 12:26:29;;;;;;;18.45;12.77;;;;;;;;;;5041681;28;20037;-73
2021/10/30 12:28:55;;;;;;;16.10;10.63;;;;;;;;;;5038232;28;20516;-73
2021/10/30 12:31:31;;;;;;;17.70;11.88;;;;;;;;;;5039030;28;20038;-73
2021/10/30 12:33:58;;;;;;;15.27;11.35;;;;;;;;;;5038005;28;20120;-73
2021/10/30 12:36:28;;;;;;;16.52;11.77;;;;;;;;;;5041844;28;20119;-73
2021/10/30 12:39:00;;;;;;;18.35;12.40;;;;;;;;;;5046736;28;20045;-73
2021/10/30 12:41:31;;;;;;;21.20;12.98;;;;;;;;;;5042350;28;20044;-73
2021/10/30 12:43:59;;;;;;;17.88;12.65;;;;;;;;;;5039150;28;20445;-73
2021/10/30 12:46:25;;;;;;;19.48;11.90;;;;;;;;;;5040929;28;20068;-73
2021/10/30 12:48:51;;;;;;;18.77;12.60;;;;;;;;;;5038882;28;20409;-73
2021/10/30 12:51:21;;;;;;;15.85;11.32;;;;;;;;;;5042462;28;20048;-73
2021/10/30 12:53:51;;;;;;;16.25;10.57;;;;;;;;;;5040849;28;20107;-73
2021/10/30 12:56:18;;;;;;;20.88;11.93;;;;;;;;;;5040053;28;20052;-73
2021/10/30 12:58:50;;;;;;;16.90;11.95;;;;;;;;;;5037935;28;20063;-73
2021/10/30 13:01:20;;;;;;;18.00;10.32;;;;;;;;;;5038276;28;20064;-72
2021/10/30 13:03:49;;;;;;;16.02;11.10;;;;;;;;;;5041404;28;20405;-73
2021/10/30 13:06:16;;;;;;;17.65;11.18;;;;;;;;;;5071999;28;20423;-73
2021/10/30 13:08:50;;;;;;;19.65;11.32;;;;;;;;;;5072846;28;20484;-73
2021/10/30 13:11:18;;;;;;;12.48;9.18;;;;;;;;;;5040230;28;20091;-73
2021/10/30 13:13:44;;;;;;;14.35;9.98;;;;;;;;;;5041648;28;20049;-73
2021/10/30 13:16:11;;;;;;;14.70;9.55;;;;;;;;;;5038773;28;20045;-73
2021/10/30 13:18:37;;;;;;;13.38;9.63;;;;;;;;;;5043731;28;20037;-73
2021/10/30 13:21:03;;;;;;;13.82;10.23;;;;;;;;;;5044120;28;20402;-73
2021/10/30 13:23:30;;;;;;;13.82;9.40;;;;;;;;;;5039367;28;20048;-73
2021/10/30 13:25:56;;;;;;;10.43;8.57;;;;;;;;;;5039042;28;20081;-72
2021/10/30 13:28:22;;;;;;;12.13;8.48;;;;;;;;;;5038327;28;20053;-73
2021/10/30 13:30:49;;;;;;;13.70;8.88;;;;;;;;;;5040443;28;20091;-70
2021/10/30 13:33:15;;;;;;;13.75;8.65;;;;;;;;;;5061911;28;20053;-73
2021/10/30 13:35:41;;;;;;;11.30;7.55;;;;;;;;;;5037010;28;20049;-73
2021/10/30 13:38:07;;;;;;;10.57;6.60;;;;;;;;;;5041270;28;20472;-73
2021/10/30 13:40:33;;;;;;;9.90;6.55;;;;;;;;;;5041670;28;20037;-73
2021/10/30 13:43:00;;;;;;;12.00;7.30;;;;;;;;;;5038744;28;20049;-73
2021/10/30 13:45:26;;;;;;;12.00;7.55;;;;;;;;;;5069411;28;20147;-73
2021/10/30 13:47:52;;;;;;;10.45;7.38;;;;;;;;;;5035862;28;20042;-73
2021/10/30 13:50:18;;;;;;;9.43;6.80;;;;;;;;;;5038551;28;20037;-73
2021/10/30 13:52:45;;;;;;;11.25;7.03;;;;;;;;;;5038090;28;20404;-73
2021/10/30 13:55:11;;;;;;;12.18;6.22;;;;;;;;;;5080561;28;20037;-73
2021/10/30 13:57:37;;;;;;;9.77;6.45;;;;;;;;;;5039028;28;20049;-73
2021/10/30 14:00:04;;;;;;;10.18;6.57;;;;;;;;;;5035571;28;20110;-73
2021/10/30 14:02:30;;;;;;;8.25;6.00;;;;;;;;;;5045857;28;20068;-73
2021/10/30 14:04:56;;;;;;;8.68;5.90;;;;;;;;;;5039668;28;20057;-73
2021/10/30 14:07:23;;;;;;;11.27;6.88;;;;;;;;;;5048253;28;20054;-73
2021/10/30 14:09:49;;;;;;;9.30;6.15;;;;;;;;;;5042733;28;20037;-73
2021/10/30 14:12:15;;;;;;;9.10;6.55;;;;;;;;;;5033586;28;20045;-73
2021/10/30 14:14:41;;;;;;;11.27;6.85;;;;;;;;;;5038817;28;20083;-73
2021/10/30 14:17:08;;;;;;;8.82;6.28;;;;;;;;;;5041072;28;20083;-73
2021/10/30 14:19:34;;;;;;;8.07;5.82;;;;;;;;;;5042810;28;20045;-73
2021/10/30 14:22:00;;;;;;;8.30;6.15;;;;;;;;;;5041386;28;20421;-73
2021/10/30 14:24:26;;;;;;;15.75;6.57;;;;;;;;;;5043177;28;20041;-73